Fairdale, Pennsylvania
Current Conditions -  °F | °C
As of 5:53 AM on Monday 20 Oct 2014 (Local Time) from KMGW Reporting Station
Clear Clear  
Wind Chill: 41°   Ceiling: Unl
Heat Index: 41°   Visibility: 10mi
Dew Point: 35°   Wind: 3mph
Humidity: 79%   Direction: 200°SSW
Pressure: 30.06"   Gusts: NA
Location:  39.864°N, 80.0039°W
Report Text: KMGW 200953Z AUTO 20003KT 10SM CLR 05/02 A3006 RMK AO2 SLP183 T00500017 TSNO
Loading
Personal Weather Stations






























Interactive Weather Map
Tropical Storm Tracking
New forecast layout! Learn more

10-Day Weather Forecast

Advertisements
Track Severe Weather on mobile